Superfast Canarias — 9HA3275 — position and weather

sailwx.info

Track history (hours):
 
Tides and Currents Weather Stations Pressure Air Temp Water Temp Dewpoint Dewpoint Depression Visibility Wind Speed Wind Dir Waves Ship Positions

Superfast Canarias

Last reported at 2018-Jun-16 23:11 UTC. Time now 2018-Jun-17 22:12 UTC.
Position N 44°11' E 013°14'.

Length 185 m; draft 6.8 m.

Type: Cargo ship. MMSI: 224665000.

Date/timePositionNaut miles runAvg speedWind from/ knotsBaromVisibWave heightAir tempDewpointWater temp
2018-Jun-16 23:11N 44°11' E 013°14'316.3
2018-Jun-16 23:00N 44°14' E 013°13'816.3
2018-Jun-16 22:30N 44°21' E 013°09'816.3
2018-Jun-16 22:00N 44°29' E 013°06'816.1
2018-Jun-16 21:30N 44°37' E 013°02'816.2
2018-Jun-16 21:00N 44°44' E 012°57'816.4
2018-Jun-16 20:30N 44°52' E 012°52'816.5
2018-Jun-16 20:00N 44°59' E 012°47'816.5
2018-Jun-16 19:30N 45°06' E 012°41'816.1
2018-Jun-16 19:00N 45°11' E 012°32'816.0
2018-Jun-16 18:30N 45°18' E 012°25'611.6
2018-Jun-16 18:00N 45°20' E 012°18'4 7.7
2018-Jun-16 17:30N 45°24' E 012°16'2 3.1
2018-Jun-16 16:58N 45°26' E 012°15'0 0.0
2018-Jun-16 16:28N 45°26' E 012°15'0 0.0
2018-Jun-16 15:58N 45°26' E 012°15'0 0.0
2018-Jun-16 15:28N 45°26' E 012°15'0 0.0
2018-Jun-16 14:58N 45°26' E 012°15'0 0.0
2018-Jun-16 14:28N 45°26' E 012°15'0 0.0
2018-Jun-16 13:58N 45°26' E 012°15'0 0.0
2018-Jun-16 13:28N 45°26' E 012°15'0 0.0
2018-Jun-16 12:58N 45°26' E 012°15'0 0.0
2018-Jun-16 12:28N 45°26' E 012°15'0 0.0
2018-Jun-16 11:58N 45°26' E 012°15'0 0.0
2018-Jun-16 11:28N 45°26' E 012°15'0 0.0
2018-Jun-16 11:01N 45°26' E 012°15'0 0.0
2018-Jun-16 10:31N 45°26' E 012°15'0 0.0
2018-Jun-16 09:58N 45°26' E 012°15'0 0.0
2018-Jun-16 09:28N 45°26' E 012°15'0 0.0
2018-Jun-16 08:58N 45°26' E 012°15'0 0.0
2018-Jun-16 08:28N 45°26' E 012°15'0 0.0
2018-Jun-16 07:58N 45°26' E 012°15'0 0.0
2018-Jun-16 07:28N 45°26' E 012°15'0 0.0
2018-Jun-16 06:58N 45°26' E 012°15'0 0.0
2018-Jun-16 06:28N 45°26' E 012°15'0 0.0
2018-Jun-16 05:57N 45°26' E 012°15'0 0.0
2018-Jun-16 05:28N 45°26' E 012°15'0 0.0
2018-Jun-16 04:58N 45°26' E 012°15'0 0.0
2018-Jun-16 04:28N 45°26' E 012°15'0 0.3
2018-Jun-16 04:00N 45°25' E 012°16'4 8.0
2018-Jun-16 03:30N 45°21' E 012°15'4 8.3
2018-Jun-16 02:59N 45°20' E 012°21'713.7
2018-Jun-16 02:30N 45°17' E 012°30'815.9
2018-Jun-16 02:00N 45°13' E 012°39'816.0
2018-Jun-16 01:30N 45°08' E 012°48'815.9
2018-Jun-16 01:00N 45°04' E 012°58'815.9
2018-Jun-16 00:31N 45°01' E 013°08'815.7
2018-Jun-16 00:00N 44°57' E 013°18'815.5
2018-Jun-15 23:31N 44°52' E 013°25'815.7
2018-Jun-15 23:01N 44°45' E 013°32'915.7
2018-Jun-15 22:27N 44°38' E 013°39'1115.7
2018-Jun-15 21:46N 44°29' E 013°47'815.8
2018-Jun-15 21:17N 44°23' E 013°53'  
2018-Jun-12 10:08N 43°31' E 014°20'215.5
2018-Jun-12 10:00N 43°32' E 014°18'1115.5
2018-Jun-12 09:17N 43°40' E 014°07'415.6
2018-Jun-12 09:00N 43°43' E 014°03'1015.7
2018-Jun-12 08:21N 43°50' E 013°53'3215.6
2018-Jun-12 06:18N 44°10' E 013°17'515.7
2018-Jun-12 06:00N 44°13' E 013°13'815.8
2018-Jun-12 05:30N 44°21' E 013°09'815.7
2018-Jun-12 05:00N 44°28' E 013°06'815.6
2018-Jun-12 04:30N 44°35' E 013°02'915.6
2018-Jun-12 03:57N 44°44' E 012°58'715.6
2018-Jun-12 03:30N 44°50' E 012°55'815.8
2018-Jun-12 03:00N 44°57' E 012°49'816.0
2018-Jun-12 02:29N 45°04' E 012°43'815.8
2018-Jun-12 02:00N 45°09' E 012°36'714.9
2018-Jun-12 01:30N 45°15' E 012°29'714.7
2018-Jun-12 01:00N 45°20' E 012°21'4 8.7
2018-Jun-12 00:30N 45°22' E 012°15'4 6.8
2018-Jun-11 23:58N 45°26' E 012°15'0 0.0
2018-Jun-11 23:31N 45°26' E 012°15'0 0.0
2018-Jun-11 22:57N 45°26' E 012°15'0 0.0
2018-Jun-11 22:28N 45°26' E 012°15'0 0.0
2018-Jun-11 21:58N 45°26' E 012°15'0 0.0
2018-Jun-11 21:28N 45°26' E 012°15'0 0.0
2018-Jun-11 21:00N 45°26' E 012°15'0 0.0
2018-Jun-11 20:28N 45°26' E 012°15'0 0.0
2018-Jun-11 20:00N 45°26' E 012°15'0 0.0
2018-Jun-11 19:28N 45°26' E 012°15'0 0.0
2018-Jun-11 19:00N 45°26' E 012°15'0 0.0
2018-Jun-11 18:28N 45°26' E 012°15'0 0.0
2018-Jun-11 18:00N 45°26' E 012°15'0 0.0
2018-Jun-11 17:28N 45°26' E 012°15'0 0.0
2018-Jun-11 17:01N 45°26' E 012°15'0 0.0
2018-Jun-11 16:31N 45°26' E 012°15'0 0.0
2018-Jun-11 16:00N 45°26' E 012°15'0 0.0
2018-Jun-11 15:30N 45°26' E 012°15'0 0.0
2018-Jun-11 14:58N 45°26' E 012°15'0 0.0
2018-Jun-11 14:31N 45°26' E 012°15'0 0.0
2018-Jun-11 13:58N 45°26' E 012°15'0 0.0
2018-Jun-11 13:27N 45°26' E 012°15'0 0.0
2018-Jun-11 12:58N 45°26' E 012°15'0 0.0
2018-Jun-11 12:27N 45°26' E 012°15'0 0.2
2018-Jun-11 12:01N 45°25' E 012°16'4 7.9
2018-Jun-11 11:30N 45°21' E 012°15'4 9.0
2018-Jun-11 11:00N 45°20' E 012°21'815.3
2018-Jun-11 10:30N 45°17' E 012°31'816.5
2018-Jun-11 10:00N 45°12' E 012°41'816.2
2018-Jun-11 09:30N 45°08' E 012°50'816.2
2018-Jun-11 09:00N 45°04' E 013°01'816.3
2018-Jun-11 08:30N 45°00' E 013°11'816.6
2018-Jun-11 08:00N 44°56' E 013°21'816.7
2018-Jun-11 07:30N 44°49' E 013°27'816.7
2018-Jun-11 07:00N 44°42' E 013°34'816.6
2018-Jun-11 06:30N 44°35' E 013°40'816.6
2018-Jun-11 06:00N 44°28' E 013°47'816.6
2018-Jun-11 05:30N 44°21' E 013°53'816.3
2018-Jun-11 05:00N 44°15' E 013°60'816.5
2018-Jun-11 04:30N 44°08' E 014°07'816.4
2018-Jun-11 04:00N 44°01' E 014°14'816.2
2018-Jun-11 03:30N 43°55' E 014°21'916.4
2018-Jun-11 02:57N 43°48' E 014°29'716.7
2018-Jun-11 02:30N 43°42' E 014°36'  
2018-Jun-07 17:09N 43°27' E 014°24'216.5
2018-Jun-07 17:00N 43°29' E 014°22'1616.5
2018-Jun-07 16:02N 43°41' E 014°06'016.4
2018-Jun-07 16:00N 43°41' E 014°06'816.5
2018-Jun-07 15:30N 43°47' E 013°58'4316.0
2018-Jun-07 12:49N 44°14' E 013°12'515.9
2018-Jun-07 12:30N 44°19' E 013°09'816.0
2018-Jun-07 12:00N 44°27' E 013°06'816.2
2018-Jun-07 11:30N 44°34' E 013°03'916.2
2018-Jun-07 10:59N 44°42' E 012°59'816.1
2018-Jun-07 10:30N 44°49' E 012°54'916.3
2018-Jun-07 09:58N 44°57' E 012°49'816.6
2018-Jun-07 09:30N 45°04' E 012°43'1016.3
2018-Jun-07 08:55N 45°10' E 012°33'716.4
2018-Jun-07 08:30N 45°16' E 012°28'714.3
2018-Jun-07 07:59N 45°20' E 012°20'4 7.9
2018-Jun-07 07:30N 45°23' E 012°15'3 5.4
2018-Jun-07 06:58N 45°26' E 012°15'0 0.0
2018-Jun-07 06:28N 45°26' E 012°15'0 0.0
2018-Jun-07 05:58N 45°26' E 012°15'0 0.0
2018-Jun-07 05:28N 45°26' E 012°15'0 0.0
2018-Jun-07 04:55N 45°26' E 012°15'0 0.0
2018-Jun-07 04:28N 45°26' E 012°15'0 0.0
2018-Jun-07 03:58N 45°26' E 012°15'0 0.0
2018-Jun-07 03:28N 45°26' E 012°15'0 0.0
2018-Jun-07 02:58N 45°26' E 012°15'0 0.0
2018-Jun-07 02:28N 45°26' E 012°15'0 0.0
2018-Jun-07 01:58N 45°26' E 012°15'0 0.0
2018-Jun-07 01:28N 45°26' E 012°15'0 0.0
2018-Jun-07 00:58N 45°26' E 012°15'0 0.0
2018-Jun-07 00:28N 45°26' E 012°15'0 0.0
2018-Jun-06 23:58N 45°26' E 012°15'0 0.0
2018-Jun-06 23:28N 45°26' E 012°15'  
Track history (hours):
 
Tides and Currents Weather Stations Pressure Air Temp Water Temp Dewpoint Dewpoint Depression Visibility Wind Speed Wind Dir Waves Ship Positions

Superfast Canarias

Last reported at 2018-Jun-16 23:11 UTC. Time now 2018-Jun-17 22:12 UTC.
Position N 44°11' E 013°14'.

Length 185 m; draft 6.8 m.

Type: Cargo ship. MMSI: 224665000.

Date/timePositionNaut miles runAvg speedWind from/ knotsBaromVisibWave heightAir tempDewpointWater temp
2018-Jun-16 23:11N 44°11' E 013°14'316.3
2018-Jun-16 23:00N 44°14' E 013°13'816.3
2018-Jun-16 22:30N 44°21' E 013°09'816.3
2018-Jun-16 22:00N 44°29' E 013°06'816.1
2018-Jun-16 21:30N 44°37' E 013°02'816.2
2018-Jun-16 21:00N 44°44' E 012°57'816.4
2018-Jun-16 20:30N 44°52' E 012°52'816.5
2018-Jun-16 20:00N 44°59' E 012°47'816.5
2018-Jun-16 19:30N 45°06' E 012°41'816.1
2018-Jun-16 19:00N 45°11' E 012°32'816.0
2018-Jun-16 18:30N 45°18' E 012°25'611.6
2018-Jun-16 18:00N 45°20' E 012°18'4 7.7
2018-Jun-16 17:30N 45°24' E 012°16'2 3.1
2018-Jun-16 16:58N 45°26' E 012°15'0 0.0
2018-Jun-16 16:28N 45°26' E 012°15'0 0.0
2018-Jun-16 15:58N 45°26' E 012°15'0 0.0
2018-Jun-16 15:28N 45°26' E 012°15'0 0.0
2018-Jun-16 14:58N 45°26' E 012°15'0 0.0
2018-Jun-16 14:28N 45°26' E 012°15'0 0.0
2018-Jun-16 13:58N 45°26' E 012°15'0 0.0
2018-Jun-16 13:28N 45°26' E 012°15'0 0.0
2018-Jun-16 12:58N 45°26' E 012°15'0 0.0
2018-Jun-16 12:28N 45°26' E 012°15'0 0.0
2018-Jun-16 11:58N 45°26' E 012°15'0 0.0
2018-Jun-16 11:28N 45°26' E 012°15'0 0.0
2018-Jun-16 11:01N 45°26' E 012°15'0 0.0
2018-Jun-16 10:31N 45°26' E 012°15'0 0.0
2018-Jun-16 09:58N 45°26' E 012°15'0 0.0
2018-Jun-16 09:28N 45°26' E 012°15'0 0.0
2018-Jun-16 08:58N 45°26' E 012°15'0 0.0
2018-Jun-16 08:28N 45°26' E 012°15'0 0.0
2018-Jun-16 07:58N 45°26' E 012°15'0 0.0
2018-Jun-16 07:28N 45°26' E 012°15'0 0.0
2018-Jun-16 06:58N 45°26' E 012°15'0 0.0
2018-Jun-16 06:28N 45°26' E 012°15'0 0.0
2018-Jun-16 05:57N 45°26' E 012°15'0 0.0
2018-Jun-16 05:28N 45°26' E 012°15'0 0.0
2018-Jun-16 04:58N 45°26' E 012°15'0 0.0
2018-Jun-16 04:28N 45°26' E 012°15'0 0.3
2018-Jun-16 04:00N 45°25' E 012°16'4 8.0
2018-Jun-16 03:30N 45°21' E 012°15'4 8.3
2018-Jun-16 02:59N 45°20' E 012°21'713.7
2018-Jun-16 02:30N 45°17' E 012°30'815.9
2018-Jun-16 02:00N 45°13' E 012°39'816.0
2018-Jun-16 01:30N 45°08' E 012°48'815.9
2018-Jun-16 01:00N 45°04' E 012°58'815.9
2018-Jun-16 00:31N 45°01' E 013°08'815.7
2018-Jun-16 00:00N 44°57' E 013°18'815.5
2018-Jun-15 23:31N 44°52' E 013°25'815.7
2018-Jun-15 23:01N 44°45' E 013°32'915.7
2018-Jun-15 22:27N 44°38' E 013°39'1115.7
2018-Jun-15 21:46N 44°29' E 013°47'815.8
2018-Jun-15 21:17N 44°23' E 013°53'  
2018-Jun-12 10:08N 43°31' E 014°20'215.5
2018-Jun-12 10:00N 43°32' E 014°18'1115.5
2018-Jun-12 09:17N 43°40' E 014°07'415.6
2018-Jun-12 09:00N 43°43' E 014°03'1015.7
2018-Jun-12 08:21N 43°50' E 013°53'3215.6
2018-Jun-12 06:18N 44°10' E 013°17'515.7
2018-Jun-12 06:00N 44°13' E 013°13'815.8
2018-Jun-12 05:30N 44°21' E 013°09'815.7
2018-Jun-12 05:00N 44°28' E 013°06'815.6
2018-Jun-12 04:30N 44°35' E 013°02'915.6
2018-Jun-12 03:57N 44°44' E 012°58'715.6
2018-Jun-12 03:30N 44°50' E 012°55'815.8
2018-Jun-12 03:00N 44°57' E 012°49'816.0
2018-Jun-12 02:29N 45°04' E 012°43'815.8
2018-Jun-12 02:00N 45°09' E 012°36'714.9
2018-Jun-12 01:30N 45°15' E 012°29'714.7
2018-Jun-12 01:00N 45°20' E 012°21'4 8.7
2018-Jun-12 00:30N 45°22' E 012°15'4 6.8
2018-Jun-11 23:58N 45°26' E 012°15'0 0.0
2018-Jun-11 23:31N 45°26' E 012°15'0 0.0
2018-Jun-11 22:57N 45°26' E 012°15'0 0.0
2018-Jun-11 22:28N 45°26' E 012°15'0 0.0
2018-Jun-11 21:58N 45°26' E 012°15'0 0.0
2018-Jun-11 21:28N 45°26' E 012°15'0 0.0
2018-Jun-11 21:00N 45°26' E 012°15'0 0.0
2018-Jun-11 20:28N 45°26' E 012°15'0 0.0
2018-Jun-11 20:00N 45°26' E 012°15'0 0.0
2018-Jun-11 19:28N 45°26' E 012°15'0 0.0
2018-Jun-11 19:00N 45°26' E 012°15'0 0.0
2018-Jun-11 18:28N 45°26' E 012°15'0 0.0
2018-Jun-11 18:00N 45°26' E 012°15'0 0.0
2018-Jun-11 17:28N 45°26' E 012°15'0 0.0
2018-Jun-11 17:01N 45°26' E 012°15'0 0.0
2018-Jun-11 16:31N 45°26' E 012°15'0 0.0
2018-Jun-11 16:00N 45°26' E 012°15'0 0.0
2018-Jun-11 15:30N 45°26' E 012°15'0 0.0
2018-Jun-11 14:58N 45°26' E 012°15'0 0.0
2018-Jun-11 14:31N 45°26' E 012°15'0 0.0
2018-Jun-11 13:58N 45°26' E 012°15'0 0.0
2018-Jun-11 13:27N 45°26' E 012°15'0 0.0
2018-Jun-11 12:58N 45°26' E 012°15'0 0.0
2018-Jun-11 12:27N 45°26' E 012°15'0 0.2
2018-Jun-11 12:01N 45°25' E 012°16'4 7.9
2018-Jun-11 11:30N 45°21' E 012°15'4 9.0
2018-Jun-11 11:00N 45°20' E 012°21'815.3
2018-Jun-11 10:30N 45°17' E 012°31'816.5
2018-Jun-11 10:00N 45°12' E 012°41'816.2
2018-Jun-11 09:30N 45°08' E 012°50'816.2
2018-Jun-11 09:00N 45°04' E 013°01'816.3
2018-Jun-11 08:30N 45°00' E 013°11'816.6
2018-Jun-11 08:00N 44°56' E 013°21'816.7
2018-Jun-11 07:30N 44°49' E 013°27'816.7
2018-Jun-11 07:00N 44°42' E 013°34'816.6
2018-Jun-11 06:30N 44°35' E 013°40'816.6
2018-Jun-11 06:00N 44°28' E 013°47'816.6
2018-Jun-11 05:30N 44°21' E 013°53'816.3
2018-Jun-11 05:00N 44°15' E 013°60'816.5
2018-Jun-11 04:30N 44°08' E 014°07'816.4
2018-Jun-11 04:00N 44°01' E 014°14'816.2
2018-Jun-11 03:30N 43°55' E 014°21'916.4
2018-Jun-11 02:57N 43°48' E 014°29'716.7
2018-Jun-11 02:30N 43°42' E 014°36'  
2018-Jun-07 17:09N 43°27' E 014°24'216.5
2018-Jun-07 17:00N 43°29' E 014°22'1616.5
2018-Jun-07 16:02N 43°41' E 014°06'016.4
2018-Jun-07 16:00N 43°41' E 014°06'816.5
2018-Jun-07 15:30N 43°47' E 013°58'4316.0
2018-Jun-07 12:49N 44°14' E 013°12'515.9
2018-Jun-07 12:30N 44°19' E 013°09'816.0
2018-Jun-07 12:00N 44°27' E 013°06'816.2
2018-Jun-07 11:30N 44°34' E 013°03'916.2
2018-Jun-07 10:59N 44°42' E 012°59'816.1
2018-Jun-07 10:30N 44°49' E 012°54'916.3
2018-Jun-07 09:58N 44°57' E 012°49'816.6
2018-Jun-07 09:30N 45°04' E 012°43'1016.3
2018-Jun-07 08:55N 45°10' E 012°33'716.4
2018-Jun-07 08:30N 45°16' E 012°28'714.3
2018-Jun-07 07:59N 45°20' E 012°20'4 7.9
2018-Jun-07 07:30N 45°23' E 012°15'3 5.4
2018-Jun-07 06:58N 45°26' E 012°15'0 0.0
2018-Jun-07 06:28N 45°26' E 012°15'0 0.0
2018-Jun-07 05:58N 45°26' E 012°15'0 0.0
2018-Jun-07 05:28N 45°26' E 012°15'0 0.0
2018-Jun-07 04:55N 45°26' E 012°15'0 0.0
2018-Jun-07 04:28N 45°26' E 012°15'0 0.0
2018-Jun-07 03:58N 45°26' E 012°15'0 0.0
2018-Jun-07 03:28N 45°26' E 012°15'0 0.0
2018-Jun-07 02:58N 45°26' E 012°15'0 0.0
2018-Jun-07 02:28N 45°26' E 012°15'0 0.0
2018-Jun-07 01:58N 45°26' E 012°15'0 0.0
2018-Jun-07 01:28N 45°26' E 012°15'0 0.0
2018-Jun-07 00:58N 45°26' E 012°15'0 0.0
2018-Jun-07 00:28N 45°26' E 012°15'0 0.0
2018-Jun-06 23:58N 45°26' E 012°15'0 0.0
2018-Jun-06 23:28N 45°26' E 012°15'  

Dump ship's entire track history